Time;durP1;ratioP1;P1;durP2;ratioP2;P2;SDS_P1;SDS_P2;PMS_P1;PMS_P2;Temp;Humidity;BMP_temperature;BMP_pressure;BME280_temperature;BME280_humidity;BME280_pressure;Samples;Min_cycle;Max_cycle;Signal;HPM_P1;HPM_P2
2022/01/12 00:00:53;;;;;;;60.78;22.95;;;-4.00;99.90;;;;;;4157773;28;20664;-56
2022/01/12 00:02:54;;;;;;;52.13;22.20;;;-4.10;99.90;;;;;;4157475;28;20022;-57
2022/01/12 00:04:55;;;;;;;55.15;22.73;;;-4.10;99.90;;;;;;4158430;28;20883;-55
2022/01/12 00:06:57;;;;;;;56.33;23.25;;;-4.10;99.90;;;;;;4157278;28;20025;-56
2022/01/12 00:09:04;;;;;;;54.30;21.60;;;-4.20;99.90;;;;;;4156902;28;20033;-58
2022/01/12 00:11:06;;;;;;;46.20;20.67;;;-4.20;99.90;;;;;;4157268;28;20030;-54
2022/01/12 00:13:07;;;;;;;48.90;20.23;;;-4.30;99.90;;;;;;4158098;28;20026;-50
2022/01/12 00:15:09;;;;;;;49.15;20.48;;;-4.30;99.90;;;;;;4157313;28;20478;-55
2022/01/12 00:17:10;;;;;;;47.97;19.95;;;-4.40;99.90;;;;;;4157926;28;20847;-57
2022/01/12 00:19:12;;;;;;;49.63;20.50;;;-4.40;99.90;;;;;;4157227;28;20112;-57
2022/01/12 00:21:13;;;;;;;50.47;20.23;;;-4.50;99.90;;;;;;4157641;28;20041;-53
2022/01/12 00:23:15;;;;;;;47.35;18.55;;;-4.50;99.90;;;;;;4157398;28;20108;-58
2022/01/12 00:34:17;;;;;;;56.80;21.40;;;-4.60;99.90;;;;;;4157415;28;20083;-51
2022/01/12 00:36:18;;;;;;;58.05;21.27;;;-4.60;99.90;;;;;;4157308;28;20522;-56
2022/01/12 00:38:23;;;;;;;53.22;21.40;;;-4.70;99.90;;;;;;4156967;28;20025;-58
2022/01/12 00:40:24;;;;;;;52.17;22.25;;;-4.70;99.90;;;;;;4156610;28;20091;-54
2022/01/12 00:42:27;;;;;;;47.30;19.67;;;-4.70;99.90;;;;;;4157070;28;20050;-60
2022/01/12 00:44:35;;;;;;;48.92;20.45;;;-4.70;99.90;;;;;;4157286;28;20075;-55
2022/01/12 00:46:39;;;;;;;43.55;18.38;;;-4.70;99.90;;;;;;4157162;28;20037;-55
2022/01/12 00:48:41;;;;;;;48.25;20.45;;;-4.80;99.90;;;;;;4156823;28;20470;-56
2022/01/12 00:50:44;;;;;;;44.78;19.23;;;-4.80;99.90;;;;;;4154694;28;20030;-57
2022/01/12 00:52:45;;;;;;;46.15;18.77;;;-4.80;99.90;;;;;;4157377;28;20017;-56
2022/01/12 00:54:46;;;;;;;45.80;18.75;;;-4.80;99.90;;;;;;4156332;28;20127;-54
2022/01/12 00:56:47;;;;;;;42.75;19.67;;;-4.80;99.90;;;;;;4157413;28;20049;-53
2022/01/12 00:58:48;;;;;;;43.83;17.65;;;-4.80;99.90;;;;;;4156792;28;20021;-57
2022/01/12 01:00:49;;;;;;;43.33;18.10;;;-4.80;99.90;;;;;;4157422;28;20536;-57
2022/01/12 01:02:51;;;;;;;47.78;19.63;;;-4.90;99.90;;;;;;4156570;28;20541;-56
2022/01/12 01:04:52;;;;;;;44.95;18.83;;;-4.90;99.90;;;;;;4157465;28;20106;-56
2022/01/12 01:06:54;;;;;;;58.03;20.73;;;-5.00;99.90;;;;;;4156404;28;20033;-52
2022/01/12 01:08:57;;;;;;;47.78;19.63;;;-5.00;99.90;;;;;;4157086;28;20037;-53
2022/01/12 01:10:58;;;;;;;56.13;21.40;;;-5.00;99.90;;;;;;4156012;28;20095;-56
2022/01/12 01:12:59;;;;;;;48.30;19.73;;;-5.00;99.90;;;;;;4157044;28;20095;-49
2022/01/12 01:15:07;;;;;;;53.53;19.23;;;-5.10;99.90;;;;;;4156429;28;20037;-56
2022/01/12 01:26:44;;;;;;;49.38;21.30;;;-5.20;99.90;;;;;;4156425;28;20440;-58
2022/01/12 01:28:45;;;;;;;53.17;22.00;;;-5.20;99.90;;;;;;4156222;28;20025;-59
2022/01/12 01:30:46;;;;;;;52.00;20.73;;;-5.30;99.90;;;;;;4156131;28;20033;-57
2022/01/12 01:32:48;;;;;;;54.97;20.58;;;-5.20;99.90;;;;;;4156035;28;20452;-55
2022/01/12 01:34:50;;;;;;;51.90;21.95;;;-5.40;99.90;;;;;;4157075;28;20029;-56
2022/01/12 01:36:53;;;;;;;55.03;21.48;;;-5.40;99.90;;;;;;4155661;28;20038;-53
2022/01/12 01:38:54;;;;;;;50.70;20.00;;;-5.50;99.90;;;;;;4155075;28;20619;-59
2022/01/12 01:40:56;;;;;;;46.45;19.35;;;-5.60;99.90;;;;;;4155757;28;20049;-58
2022/01/12 01:54:22;;;;;;;54.03;20.63;;;-5.90;99.90;;;;;;4156025;28;20083;-57
2022/01/12 01:56:23;;;;;;;51.63;19.50;;;-5.90;99.90;;;;;;4156193;28;20049;-58
2022/01/12 01:58:24;;;;;;;50.20;20.30;;;-5.90;99.90;;;;;;4155823;28;20520;-58
2022/01/12 02:00:27;;;;;;;47.85;19.75;;;-6.00;99.90;;;;;;4156191;28;20030;-57
2022/01/12 02:02:28;;;;;;;45.38;18.90;;;-6.00;99.90;;;;;;4155331;28;20033;-53
2022/01/12 02:04:29;;;;;;;44.63;18.65;;;-6.10;99.90;;;;;;4154565;28;21453;-55
2022/01/12 02:06:31;;;;;;;37.95;17.60;;;-6.10;99.90;;;;;;4156349;28;20030;-59
2022/01/12 02:08:33;;;;;;;48.58;19.23;;;-6.10;99.90;;;;;;4155410;28;20452;-56
2022/01/12 02:10:35;;;;;;;44.60;16.77;;;-6.10;99.90;;;;;;4156027;28;20084;-61
2022/01/12 02:12:37;;;;;;;36.35;16.65;;;-6.20;99.90;;;;;;4155368;28;20576;-56
2022/01/12 02:14:38;;;;;;;38.17;16.52;;;-6.20;99.90;;;;;;4156414;28;20087;-55
2022/01/12 02:16:52;;;;;;;48.30;18.55;;;-6.20;99.90;;;;;;4155365;28;20150;-57
2022/01/12 02:39:51;;;;;;;110.85;38.17;;;-6.40;99.90;;;;;;4155763;28;20079;-57
2022/01/12 02:41:52;;;;;;;104.90;38.67;;;-6.40;99.90;;;;;;4155299;28;20107;-55
2022/01/12 02:55:38;;;;;;;91.50;35.83;;;-6.40;99.90;;;;;;4157990;28;20104;-58
2022/01/12 02:57:39;;;;;;;87.72;32.17;;;-6.40;99.90;;;;;;4159505;28;20041;-54
2022/01/12 03:00:00;;;;;;;86.25;31.50;;;-6.40;99.90;;;;;;4158270;28;20756;-54
2022/01/12 03:04:22;;;;;;;;;;;-6.50;99.90;;;;;;4158817;28;20099;-57
2022/01/12 03:06:27;;;;;;;;;;;-6.40;99.90;;;;;;4159869;28;19909;-55
2022/01/12 03:08:36;;;;;;;56.38;21.38;;;-6.40;99.90;;;;;;4157951;28;19905;-60
2022/01/12 03:10:37;;;;;;;68.57;24.27;;;-6.40;99.90;;;;;;4158806;28;20025;-54
2022/01/12 03:12:40;;;;;;;59.58;23.70;;;-6.40;99.90;;;;;;4157801;28;20033;-57
2022/01/12 03:14:41;;;;;;;63.25;24.63;;;-6.30;99.90;;;;;;4158695;28;20119;-52
2022/01/12 03:16:42;;;;;;;52.50;20.83;;;-6.40;99.90;;;;;;4157954;28;20053;-57
2022/01/12 03:18:49;;;;;;;52.28;19.60;;;-6.30;99.90;;;;;;4158587;28;20045;-54
2022/01/12 03:20:50;;;;;;;39.33;16.98;;;-6.30;99.90;;;;;;4158159;28;20064;-53
2022/01/12 03:22:51;;;;;;;41.25;17.00;;;-6.30;99.90;;;;;;4158593;28;20041;-54
2022/01/12 03:24:52;;;;;;;43.13;16.65;;;-6.30;99.90;;;;;;4157725;28;20576;-62
2022/01/12 03:26:53;;;;;;;44.70;17.85;;;-6.30;99.90;;;;;;4158436;28;20025;-50
2022/01/12 03:28:57;;;;;;;44.33;17.80;;;-6.40;99.90;;;;;;4158323;28;20033;-55
2022/01/12 03:33:17;;;;;;;44.90;19.15;;;-6.40;99.90;;;;;;4158603;28;20030;-56
2022/01/12 03:35:46;;;;;;;50.75;18.52;;;-6.40;99.90;;;;;;4158322;28;20160;-56
2022/01/12 03:38:20;;;;;;;44.05;17.60;;;-6.40;99.90;;;;;;4157786;28;20038;-53
2022/01/12 03:40:15;;;;;;;39.03;14.80;;;-6.50;99.90;;;;;;4157826;28;20470;-54
2022/01/12 03:42:19;;;;;;;38.85;15.45;;;-6.50;99.90;;;;;;4157447;28;20192;-63
2022/01/12 03:44:20;;;;;;;50.47;18.85;;;-6.60;99.90;;;;;;4157980;28;20099;-55
2022/01/12 03:46:25;;;;;;;42.40;15.80;;;-6.60;99.90;;;;;;4158567;28;20087;-57
2022/01/12 03:48:26;;;;;;;47.75;16.67;;;-6.70;99.90;;;;;;4157780;28;20068;-63
2022/01/12 03:50:27;;;;;;;37.92;14.85;;;-6.70;99.90;;;;;;4157907;28;20017;-54
2022/01/12 03:52:28;;;;;;;40.22;15.68;;;-6.80;99.90;;;;;;4157883;28;20457;-58
2022/01/12 03:54:29;;;;;;;41.45;14.68;;;-6.90;99.90;;;;;;4157583;28;20022;-56
2022/01/12 03:56:30;;;;;;;38.95;15.60;;;-7.00;99.90;;;;;;4156882;28;20038;-60
2022/01/12 03:58:32;;;;;;;48.17;17.48;;;-7.00;99.90;;;;;;4158281;28;20079;-54
2022/01/12 04:00:33;;;;;;;46.83;16.15;;;-7.10;99.90;;;;;;4157106;28;20033;-54
2022/01/12 04:02:34;;;;;;;44.53;16.35;;;-7.20;99.90;;;;;;4158201;28;20037;-57
2022/01/12 04:04:52;;;;;;;45.42;16.65;;;-7.20;99.90;;;;;;4156997;28;20083;-52
2022/01/12 04:09:13;;;;;;;45.85;18.55;;;-7.20;99.90;;;;;;4157203;28;20103;-58
2022/01/12 04:11:14;;;;;;;45.53;17.15;;;-7.20;99.90;;;;;;4158385;28;20029;-57
2022/01/12 04:13:16;;;;;;;41.05;15.95;;;-7.20;99.90;;;;;;4156141;28;20053;-53
2022/01/12 04:15:17;;;;;;;35.45;15.45;;;-7.20;99.90;;;;;;4157513;28;20033;-55
2022/01/12 04:17:18;;;;;;;44.13;17.25;;;-7.30;99.90;;;;;;4157060;28;20033;-56
2022/01/12 04:19:19;;;;;;;44.95;16.10;;;-7.30;99.90;;;;;;4157413;28;20037;-53
2022/01/12 04:21:27;;;;;;;37.40;15.13;;;-7.30;99.90;;;;;;4157197;28;20045;-53
2022/01/12 04:23:28;;;;;;;47.83;18.10;;;-7.30;99.90;;;;;;4158072;28;20026;-60
2022/01/12 04:25:29;;;;;;;73.22;24.65;;;-7.30;99.90;;;;;;4156459;28;20060;-56
2022/01/12 04:27:31;;;;;;;87.57;29.40;;;-7.30;99.90;;;;;;4157321;28;20083;-56
2022/01/12 04:29:32;;;;;;;50.83;19.25;;;-7.30;99.90;;;;;;4157237;28;20045;-52
2022/01/12 04:31:37;;;;;;;42.03;15.38;;;-7.30;99.90;;;;;;4157478;28;20037;-56
2022/01/12 04:33:40;;;;;;;43.72;16.17;;;-7.30;99.90;;;;;;4157578;28;20030;-65
2022/01/12 04:35:50;;;;;;;33.53;13.95;;;-7.30;99.90;;;;;;4157136;28;20557;-56
2022/01/12 04:37:51;;;;;;;38.58;14.07;;;-7.40;99.90;;;;;;4157362;28;20041;-54
2022/01/12 04:39:52;;;;;;;35.08;14.18;;;-7.40;99.90;;;;;;4156633;28;20030;-57
2022/01/12 04:41:53;;;;;;;33.33;13.90;;;-7.40;99.90;;;;;;4157342;28;20517;-57
2022/01/12 04:43:56;;;;;;;36.13;14.25;;;-7.50;99.90;;;;;;4156680;28;20076;-58
2022/01/12 04:46:09;;;;;;;28.60;13.77;;;-7.50;99.90;;;;;;4157512;28;20524;-54
2022/01/12 04:50:17;;;;;;;32.60;14.52;;;-7.60;99.90;;;;;;4156263;28;20033;-57
2022/01/12 04:52:18;;;;;;;38.63;15.10;;;-7.60;99.90;;;;;;4155070;28;20517;-57
2022/01/12 04:54:19;;;;;;;39.70;16.23;;;-7.60;99.90;;;;;;4151967;28;20041;-66
2022/01/12 04:56:20;;;;;;;56.40;24.50;;;-7.70;99.90;;;;;;4155978;28;20026;-59
2022/01/12 04:58:22;;;;;;;56.10;24.45;;;-7.70;99.90;;;;;;4156983;28;20033;-55
2022/01/12 05:00:25;;;;;;;56.88;22.45;;;-7.70;99.90;;;;;;4156340;28;20018;-58
2022/01/12 05:09:39;;;;;;;49.83;18.92;;;-7.60;99.90;;;;;;4155707;28;20080;-58
2022/01/12 05:13:57;;;;;;;50.92;23.00;;;-7.60;99.90;;;;;;4155414;28;20444;-58
2022/01/12 05:16:00;;;;;;;39.65;18.98;;;-7.60;99.90;;;;;;4156576;28;20742;-56
2022/01/12 05:18:01;;;;;;;45.42;17.27;;;-7.60;99.90;;;;;;4153968;28;20422;-57
2022/01/12 05:20:03;;;;;;;45.97;16.30;;;-7.60;99.90;;;;;;4156351;28;20030;-61
2022/01/12 05:22:06;;;;;;;43.42;17.17;;;-7.60;99.90;;;;;;4155662;28;20103;-60
2022/01/12 05:24:07;;;;;;;41.67;17.70;;;-7.50;99.90;;;;;;4156987;28;20034;-52
2022/01/12 05:26:09;;;;;;;39.85;15.45;;;-7.60;99.90;;;;;;4155939;28;20458;-59
2022/01/12 05:28:10;;;;;;;43.53;16.20;;;-7.50;99.90;;;;;;4156070;28;20444;-57
2022/01/12 05:30:11;;;;;;;40.92;16.25;;;-7.60;99.90;;;;;;4155575;28;20091;-58
2022/01/12 05:32:13;;;;;;;44.50;19.55;;;-7.60;99.90;;;;;;4156181;28;20084;-58
2022/01/12 05:34:14;;;;;;;41.38;16.63;;;-7.60;99.90;;;;;;4156157;28;20053;-57
2022/01/12 05:36:17;;;;;;;39.97;16.92;;;-7.60;99.90;;;;;;4155557;28;20087;-59
2022/01/12 05:38:18;;;;;;;45.78;17.73;;;-7.70;99.90;;;;;;4156166;28;20076;-59
2022/01/12 05:40:20;;;;;;;39.78;15.88;;;-7.70;99.90;;;;;;4155312;28;20025;-56
2022/01/12 05:42:23;;;;;;;43.13;21.13;;;-7.70;99.90;;;;;;4156199;28;20473;-59
2022/01/12 05:44:25;;;;;;;46.85;20.60;;;-7.70;99.90;;;;;;4155395;28;20056;-59
2022/01/12 05:46:27;;;;;;;43.42;16.90;;;-7.70;99.90;;;;;;4154545;28;20041;-58
2022/01/12 05:50:49;;;;;;;45.55;17.20;;;-7.70;99.90;;;;;;4144951;28;20088;-58
2022/01/12 05:52:51;;;;;;;45.55;16.48;;;-7.80;99.90;;;;;;4154782;28;20099;-58
2022/01/12 05:54:52;;;;;;;47.60;17.42;;;-7.80;99.90;;;;;;4155742;28;20045;-56
2022/01/12 05:56:53;;;;;;;43.10;16.40;;;-7.80;99.90;;;;;;4155111;28;20050;-58
2022/01/12 05:58:54;;;;;;;47.65;16.88;;;-7.90;99.90;;;;;;4155654;28;20041;-55
2022/01/12 06:00:55;;;;;;;51.25;17.77;;;-7.90;99.90;;;;;;4154908;28;20071;-58
2022/01/12 06:02:57;;;;;;;50.42;18.20;;;-8.00;99.90;;;;;;4155473;28;20382;-58
2022/01/12 06:04:58;;;;;;;52.90;18.45;;;-8.00;99.90;;;;;;4155379;28;20091;-58
2022/01/12 06:07:01;;;;;;;51.63;18.30;;;-8.10;99.90;;;;;;4155038;28;20041;-57
2022/01/12 06:09:03;;;;;;;51.75;19.00;;;-8.10;99.90;;;;;;4155011;28;20172;-56
2022/01/12 06:11:05;;;;;;;41.17;19.05;;;-8.20;99.90;;;;;;4155265;28;20070;-57
2022/01/12 06:13:06;;;;;;;45.25;17.90;;;-8.20;99.90;;;;;;4155489;28;20055;-56
2022/01/12 06:15:08;;;;;;;63.78;26.20;;;-8.20;99.90;;;;;;4154900;28;20088;-52
2022/01/12 06:17:10;;;;;;;50.35;19.75;;;-8.20;99.90;;;;;;4155208;28;20099;-55
2022/01/12 06:19:12;;;;;;;52.35;19.70;;;-8.20;99.90;;;;;;4155143;28;20493;-57
2022/01/12 06:21:13;;;;;;;41.20;17.27;;;-8.10;99.90;;;;;;4155468;28;20849;-59
2022/01/12 06:23:14;;;;;;;56.75;19.45;;;-7.90;99.90;;;;;;4154885;28;20103;-57
2022/01/12 06:25:16;;;;;;;51.35;19.20;;;-7.80;99.90;;;;;;4155455;28;20033;-59
2022/01/12 06:27:20;;;;;;;43.65;19.77;;;-7.70;99.90;;;;;;4154776;28;20142;-60
2022/01/12 06:31:26;;;;;;;46.47;19.00;;;-7.40;99.90;;;;;;4154964;28;20033;-58
2022/01/12 06:33:27;;;;;;;50.97;18.30;;;-7.10;99.90;;;;;;4156136;28;20091;-56
2022/01/12 06:35:28;;;;;;;43.67;17.60;;;-6.80;99.90;;;;;;4154982;28;20485;-58
2022/01/12 06:37:29;;;;;;;44.92;17.40;;;-6.70;99.90;;;;;;4155499;28;20038;-53
2022/01/12 06:39:30;;;;;;;41.85;17.65;;;-6.50;99.90;;;;;;4155208;28;20547;-57
2022/01/12 06:41:32;;;;;;;52.28;20.35;;;-6.30;99.90;;;;;;4154724;28;20512;-59
2022/01/12 06:43:35;;;;;;;45.65;20.67;;;-6.00;99.90;;;;;;4154954;28;20030;-58
2022/01/12 06:45:36;;;;;;;45.42;18.35;;;-5.80;99.90;;;;;;4153311;28;20041;-53
2022/01/12 06:47:38;;;;;;;45.80;19.38;;;-5.80;99.90;;;;;;4155687;28;20448;-56
2022/01/12 06:49:39;;;;;;;48.90;17.92;;;-5.60;99.90;;;;;;4154657;28;20283;-58
2022/01/12 06:51:40;;;;;;;45.88;19.88;;;-5.30;99.90;;;;;;4153412;28;20786;-58
2022/01/12 06:53:41;;;;;;;45.30;18.48;;;-4.90;99.90;;;;;;4155013;28;20456;-58
2022/01/12 06:55:42;;;;;;;49.95;21.13;;;-4.60;99.90;;;;;;4155188;28;20037;-58
2022/01/12 06:57:43;;;;;;;51.15;19.67;;;-4.40;99.90;;;;;;4154676;28;20041;-63
2022/01/12 06:59:45;;;;;;;48.90;21.23;;;-4.40;99.90;;;;;;4155011;28;20079;-57
2022/01/12 07:01:47;;;;;;;47.00;19.53;;;-4.40;99.90;;;;;;4154507;28;20289;-60
2022/01/12 07:03:49;;;;;;;46.57;21.40;;;-4.40;99.90;;;;;;4155405;28;20968;-60
2022/01/12 07:05:50;;;;;;;46.77;21.27;;;-4.20;99.90;;;;;;4154695;28;20722;-60
2022/01/12 07:07:51;;;;;;;47.43;21.67;;;-4.10;99.90;;;;;;4155454;28;20333;-59
2022/01/12 07:09:53;;;;;;;53.23;25.80;;;-4.00;99.90;;;;;;4154891;28;20267;-59
2022/01/12 07:11:54;;;;;;;68.27;35.53;;;-3.80;99.90;;;;;;4154776;28;20737;-60
2022/01/12 07:13:55;;;;;;;48.77;26.37;;;-3.60;99.90;;;;;;4155046;28;20661;-60
2022/01/12 07:15:57;;;;;;;49.40;22.27;;;-3.40;99.90;;;;;;4154640;28;20258;-60
2022/01/12 07:18:03;;;;;;;50.20;21.03;;;-3.10;99.90;;;;;;4154940;28;20376;-59
2022/01/12 07:20:05;;;;;;;43.03;20.67;;;-2.90;99.90;;;;;;4155239;28;20716;-59
2022/01/12 07:22:06;;;;;;;38.67;18.37;;;-2.50;99.90;;;;;;4155599;28;20900;-59
2022/01/12 07:24:07;;;;;;;40.20;19.73;;;-2.10;99.90;;;;;;4154995;28;20329;-59
2022/01/12 07:26:09;;;;;;;46.10;19.40;;;-1.80;99.90;;;;;;4155067;28;20678;-59
2022/01/12 07:28:10;;;;;;;39.93;19.10;;;-1.60;99.90;;;;;;4154408;28;20275;-60
2022/01/12 07:30:11;;;;;;;44.30;20.13;;;-1.60;99.90;;;;;;4156586;28;20282;-59
2022/01/12 07:32:13;;;;;;;48.33;21.00;;;-1.60;99.90;;;;;;4157658;28;20258;-58
2022/01/12 07:34:15;;;;;;;49.47;20.70;;;-1.90;99.90;;;;;;4158181;28;20262;-59
2022/01/12 07:36:18;;;;;;;44.67;21.50;;;-2.10;99.90;;;;;;4157513;28;20270;-60
2022/01/12 07:38:19;;;;;;;49.37;20.33;;;-2.20;99.90;;;;;;4157852;28;20464;-57
2022/01/12 07:40:20;;;;;;;42.43;19.17;;;-2.20;99.90;;;;;;4157298;28;20332;-59
2022/01/12 07:42:22;;;;;;;43.47;18.87;;;-2.10;99.90;;;;;;4157345;28;20352;-62
2022/01/12 07:44:23;;;;;;;42.10;20.23;;;-2.20;99.90;;;;;;4156013;28;21158;-58
2022/01/12 07:46:24;;;;;;;39.90;19.17;;;-2.10;99.90;;;;;;4157701;28;20317;-60
2022/01/12 07:48:25;;;;;;;39.10;19.33;;;-2.20;99.90;;;;;;4157937;28;20270;-59
2022/01/12 07:50:27;;;;;;;41.43;19.73;;;-2.30;99.90;;;;;;4157769;28;20320;-58
2022/01/12 07:52:30;;;;;;;39.77;20.37;;;-2.40;99.90;;;;;;4157691;28;20329;-62
2022/01/12 07:54:31;;;;;;;44.83;21.27;;;-2.10;99.90;;;;;;4157362;28;21030;-60
2022/01/12 07:56:33;;;;;;;46.73;21.60;;;-1.90;99.90;;;;;;4157569;28;20278;-59
2022/01/12 07:58:34;;;;;;;42.93;17.37;;;-1.60;99.90;;;;;;4156752;28;20713;-60
2022/01/12 08:00:35;;;;;;;39.70;19.67;;;-1.50;99.90;;;;;;4158030;28;20274;-59
2022/01/12 08:02:36;;;;;;;43.97;18.60;;;-1.60;99.90;;;;;;4156670;28;20726;-58
2022/01/12 08:04:38;;;;;;;38.93;21.20;;;-1.50;99.90;;;;;;4158033;28;20899;-59
2022/01/12 08:06:39;;;;;;;41.10;18.20;;;-1.30;99.90;;;;;;4156755;28;20274;-59
2022/01/12 08:08:42;;;;;;;43.20;19.13;;;-1.30;99.90;;;;;;4155675;28;20271;-59
2022/01/12 08:10:43;;;;;;;50.40;19.07;;;-1.30;99.90;;;;;;4156853;28;20270;-59
2022/01/12 08:12:44;;;;;;;41.30;19.80;;;-1.30;99.90;;;;;;4157461;28;20267;-60
2022/01/12 08:14:45;;;;;;;40.80;19.37;;;-1.40;99.90;;;;;;4156748;28;20275;-57
2022/01/12 08:16:47;;;;;;;40.83;18.50;;;-1.20;99.90;;;;;;4156954;28;20313;-62
2022/01/12 08:18:51;;;;;;;54.37;20.60;;;-1.10;99.90;;;;;;4156316;28;20352;-59
2022/01/12 08:20:52;;;;;;;51.93;22.13;;;-1.20;99.90;;;;;;4157327;28;20750;-62
2022/01/12 08:22:53;;;;;;;47.37;20.93;;;-1.20;99.90;;;;;;4157273;28;20405;-57
2022/01/12 08:24:55;;;;;;;49.87;19.50;;;-1.20;99.90;;;;;;4156760;28;20270;-59
2022/01/12 08:26:56;;;;;;;43.07;19.60;;;-1.30;99.90;;;;;;4157448;28;20698;-60
2022/01/12 08:28:57;;;;;;;49.63;19.90;;;-1.30;99.90;;;;;;4156599;28;20326;-57
2022/01/12 08:30:58;;;;;;;56.37;21.93;;;-1.20;99.90;;;;;;4157573;28;20337;-59
2022/01/12 08:33:00;;;;;;;43.27;20.17;;;-1.10;99.90;;;;;;4156756;28;20275;-59
2022/01/12 08:35:01;;;;;;;53.83;18.93;;;-1.10;99.90;;;;;;4157481;28;20263;-59
2022/01/12 08:37:03;;;;;;;40.03;18.03;;;-1.00;99.90;;;;;;4156524;28;20328;-60
2022/01/12 08:39:08;;;;;;;34.37;16.20;;;-0.80;99.90;;;;;;4156344;28;20282;-59
2022/01/12 08:41:09;;;;;;;28.77;14.30;;;-0.70;99.90;;;;;;4153967;28;21225;-58
2022/01/12 08:43:10;;;;;;;28.43;13.40;;;-0.60;99.90;;;;;;4156896;28;20282;-59
2022/01/12 08:45:12;;;;;;;29.67;12.20;;;-0.50;99.90;;;;;;4156819;28;20279;-57
2022/01/12 08:47:13;;;;;;;28.83;13.53;;;-0.90;99.90;;;;;;4156449;28;20290;-52
2022/01/12 08:49:14;;;;;;;28.40;11.53;;;-1.00;99.90;;;;;;4154499;28;20352;-57
2022/01/12 08:51:15;;;;;;;29.77;11.00;;;-1.80;99.10;;;;;;4156021;28;20778;-58
2022/01/12 08:53:16;;;;;;;28.80;12.10;;;-2.10;99.90;;;;;;4157261;28;20370;-63
2022/01/12 08:55:20;;;;;;;16.13;8.40;;;-2.20;99.90;;;;;;4156464;28;20663;-59
2022/01/12 08:57:21;;;;;;;25.90;10.70;;;-2.20;99.90;;;;;;4156244;28;20344;-58
2022/01/12 08:59:22;;;;;;;18.10;9.00;;;-2.50;99.50;;;;;;4156056;28;20348;-59
2022/01/12 09:01:24;;;;;;;23.30;10.23;;;-2.60;99.80;;;;;;4156386;28;20286;-57
2022/01/12 09:03:25;;;;;;;26.00;11.60;;;-2.80;99.80;;;;;;4156208;28;20286;-60
2022/01/12 09:05:26;;;;;;;25.20;10.77;;;-2.70;99.90;;;;;;4156446;28;20317;-58
2022/01/12 09:07:27;;;;;;;21.23;9.80;;;-2.70;99.90;;;;;;4156139;28;20325;-58
2022/01/12 09:09:30;;;;;;;23.80;9.80;;;-2.70;99.90;;;;;;4157469;28;20275;-61
2022/01/12 09:11:32;;;;;;;22.70;9.97;;;-2.80;99.30;;;;;;4156368;28;20604;-57
2022/01/12 09:13:33;;;;;;;24.53;10.27;;;-3.00;99.40;;;;;;4156193;28;20696;-58
2022/01/12 09:15:34;;;;;;;21.57;8.33;;;-3.00;99.90;;;;;;4155714;28;20771;-60
2022/01/12 09:17:36;;;;;;;26.77;9.47;;;-3.00;99.70;;;;;;4156021;28;20332;-58
2022/01/12 09:19:37;;;;;;;26.33;8.00;;;-3.20;99.40;;;;;;4155715;28;20336;-57
2022/01/12 09:21:38;;;;;;;24.80;8.80;;;-3.00;99.80;;;;;;4156179;28;20310;-58
2022/01/12 09:23:39;;;;;;;16.37;8.50;;;-2.90;98.70;;;;;;4156412;28;20340;-57
2022/01/12 09:25:41;;;;;;;19.40;8.30;;;-3.00;98.70;;;;;;4155567;28;20790;-58
2022/01/12 09:27:43;;;;;;;22.50;10.60;;;-3.20;98.10;;;;;;4155466;28;20333;-58
2022/01/12 09:29:44;;;;;;;20.90;9.17;;;-3.30;98.50;;;;;;4155866;28;20657;-61
2022/01/12 09:31:46;;;;;;;16.97;8.53;;;-3.20;99.30;;;;;;4155965;28;20283;-58
2022/01/12 09:33:49;;;;;;;22.50;8.67;;;-3.00;99.90;;;;;;4155226;28;20271;-59
2022/01/12 09:35:53;;;;;;;23.03;8.10;;;-2.90;99.20;;;;;;4156425;28;20271;-57
2022/01/12 09:37:54;;;;;;;18.50;8.27;;;-2.90;99.10;;;;;;4155131;28;20348;-58
2022/01/12 09:39:56;;;;;;;22.40;9.17;;;-2.80;99.50;;;;;;4156502;28;20804;-59
2022/01/12 09:41:58;;;;;;;19.13;8.17;;;-2.80;98.90;;;;;;4155628;28;20351;-59
2022/01/12 09:44:00;;;;;;;20.57;9.03;;;-2.90;99.80;;;;;;4156360;28;20361;-60
2022/01/12 09:46:02;;;;;;;22.97;8.87;;;-3.10;99.30;;;;;;4155676;28;20267;-59
2022/01/12 09:48:03;;;;;;;17.93;7.27;;;-3.20;99.90;;;;;;4156311;28;20742;-58
2022/01/12 09:50:05;;;;;;;15.27;7.13;;;-3.30;99.90;;;;;;4155626;28;20263;-54
2022/01/12 09:52:06;;;;;;;18.03;8.93;;;-3.50;99.50;;;;;;4155286;28;20052;-58
2022/01/12 09:54:07;;;;;;;17.60;8.60;;;-3.40;99.90;;;;;;4155804;28;20980;-59
2022/01/12 09:56:29;;;;;;;21.70;8.27;;;-3.40;99.90;;;;;;4155488;28;20313;-58
2022/01/12 09:58:33;;;;;;;16.43;7.33;;;-3.30;99.90;;;;;;4154928;28;20341;-59
2022/01/12 10:00:35;;;;;;;19.03;8.63;;;-3.40;99.90;;;;;;4155292;28;20332;-59
2022/01/12 10:02:36;;;;;;;20.55;7.80;;;-3.40;99.50;;;;;;4154242;28;20329;-62
2022/01/12 10:04:37;;;;;;;15.10;5.77;;;-3.50;99.30;;;;;;4154973;28;20677;-58
2022/01/12 10:06:40;;;;;;;15.70;7.30;;;-3.60;99.40;;;;;;4155549;28;20263;-62
2022/01/12 10:08:44;;;;;;;10.68;5.05;;;-3.60;99.80;;;;;;4154531;28;20099;-60
2022/01/12 10:11:05;;;;;;;13.27;5.95;;;-3.60;99.10;;;;;;4155286;28;20421;-58
2022/01/12 10:13:17;;;;;;;13.60;5.77;;;-3.50;98.90;;;;;;4155169;28;20103;-59
2022/01/12 10:15:18;;;;;;;17.53;7.30;;;-3.50;98.60;;;;;;4154667;28;20301;-59
2022/01/12 10:17:29;;;;;;;12.25;5.78;;;-3.60;98.90;;;;;;4154804;28;20266;-56
2022/01/12 10:19:33;;;;;;;17.92;6.93;;;-3.60;99.40;;;;;;4155260;28;20106;-60
2022/01/12 10:21:38;;;;;;;14.93;6.65;;;-3.60;99.70;;;;;;4154609;28;20026;-59
2022/01/12 10:23:40;;;;;;;16.02;6.95;;;-3.60;99.40;;;;;;4155088;28;20091;-57
2022/01/12 10:25:48;;;;;;;22.08;8.07;;;-3.60;99.80;;;;;;4154133;28;20041;-57
2022/01/12 10:27:54;;;;;;;17.95;7.75;;;-3.60;99.90;;;;;;4155710;28;20022;-59
2022/01/12 10:29:57;;;;;;;17.50;6.38;;;-3.40;99.90;;;;;;4154364;28;20064;-58
2022/01/12 10:32:04;;;;;;;13.30;7.38;;;-3.40;99.90;;;;;;4154496;28;20029;-60
2022/01/12 10:34:05;;;;;;;13.45;5.43;;;-3.40;99.90;;;;;;4154081;28;20107;-55
2022/01/12 10:36:06;;;;;;;13.63;7.00;;;-3.30;99.90;;;;;;4154755;28;20034;-59
2022/01/12 10:38:10;;;;;;;17.10;5.90;;;-3.30;99.40;;;;;;4154443;28;20045;-58
2022/01/12 10:40:11;;;;;;;15.55;6.85;;;-3.40;99.20;;;;;;4154660;28;20292;-59
2022/01/12 10:42:14;;;;;;;13.40;5.85;;;-3.40;99.50;;;;;;4155070;28;20050;-57
2022/01/12 10:44:20;;;;;;;16.05;7.07;;;-3.40;99.20;;;;;;4155012;28;20130;-57
2022/01/12 10:46:26;;;;;;;14.80;6.03;;;-3.50;98.90;;;;;;4154313;28;20033;-59
2022/01/12 10:48:51;;;;;;;13.73;5.95;;;-3.50;99.10;;;;;;4154977;28;20262;-65
2022/01/12 10:50:57;;;;;;;16.45;6.15;;;-3.70;98.90;;;;;;4154038;28;20119;-57
2022/01/12 10:52:58;;;;;;;12.93;6.15;;;-3.80;99.40;;;;;;4155440;28;20118;-62
2022/01/12 10:55:09;;;;;;;16.25;6.72;;;-3.70;99.60;;;;;;4155287;28;20488;-61
2022/01/12 10:57:23;;;;;;;15.82;7.05;;;-3.70;99.90;;;;;;4153419;28;20969;-57
2022/01/12 10:59:24;;;;;;;25.23;8.30;;;-3.70;99.90;;;;;;4153959;28;20058;-59
2022/01/12 11:01:28;;;;;;;17.45;7.47;;;-3.70;99.90;;;;;;4154807;28;20041;-54
2022/01/12 11:03:31;;;;;;;19.13;8.20;;;-3.50;99.90;;;;;;4155490;28;20869;-60
2022/01/12 11:05:32;;;;;;;20.75;8.25;;;-3.50;99.90;;;;;;4158073;28;20361;-60
2022/01/12 11:07:34;;;;;;;15.23;7.37;;;-3.50;99.90;;;;;;4157396;28;20041;-57
2022/01/12 11:09:36;;;;;;;14.98;6.88;;;-3.60;99.90;;;;;;4157530;28;20304;-58
2022/01/12 11:11:38;;;;;;;14.70;6.78;;;-3.60;99.90;;;;;;4158116;28;20017;-60
2022/01/12 11:13:39;;;;;;;17.15;7.00;;;-3.60;99.90;;;;;;4157892;28;20148;-59
2022/01/12 11:15:41;;;;;;;13.40;6.75;;;-3.70;99.90;;;;;;4158089;28;20095;-59
2022/01/12 11:17:45;;;;;;;16.27;7.03;;;-3.70;99.90;;;;;;4156871;28;20029;-59
2022/01/12 11:20:07;;;;;;;13.07;5.97;;;-3.70;99.90;;;;;;4158290;28;20061;-58
2022/01/12 11:22:24;;;;;;;15.70;6.65;;;-3.70;99.90;;;;;;4157257;28;20041;-59
2022/01/12 11:24:28;;;;;;;17.77;6.30;;;-3.80;99.60;;;;;;4158159;28;20433;-58
2022/01/12 11:26:31;;;;;;;14.88;7.20;;;-3.70;99.90;;;;;;4157605;28;20029;-58
2022/01/12 11:28:39;;;;;;;12.82;5.63;;;-3.70;99.90;;;;;;4157880;28;20087;-60
2022/01/12 11:30:57;;;;;;;15.77;5.85;;;-3.60;99.90;;;;;;4157191;28;20083;-60
2022/01/12 11:33:02;;;;;;;14.27;6.05;;;-3.60;99.70;;;;;;4157957;28;20286;-57
2022/01/12 11:35:04;;;;;;;12.68;6.22;;;-3.60;99.60;;;;;;4157535;28;20079;-58
2022/01/12 11:37:16;;;;;;;14.63;6.78;;;-3.60;99.10;;;;;;4158153;28;20026;-59
2022/01/12 11:39:18;;;;;;;12.40;5.78;;;-3.60;99.70;;;;;;4157022;28;20041;-57
2022/01/12 11:41:26;;;;;;;14.45;6.43;;;-3.60;99.60;;;;;;4157215;28;20494;-59
2022/01/12 11:43:29;;;;;;;11.90;6.03;;;-3.60;99.50;;;;;;4157452;28;20037;-55
2022/01/12 11:45:30;;;;;;;12.25;6.10;;;-3.60;99.50;;;;;;4158038;28;20112;-59
2022/01/12 11:47:31;;;;;;;15.52;5.90;;;-3.60;99.70;;;;;;4156727;28;20080;-58
2022/01/12 11:49:36;;;;;;;16.75;6.47;;;-3.50;99.80;;;;;;4157860;28;21011;-59
2022/01/12 11:51:43;;;;;;;14.13;6.75;;;-3.40;99.90;;;;;;4156785;28;20510;-59